Time;durP1;ratioP1;P1;durP2;ratioP2;P2;SDS_P1;SDS_P2;PMS_P1;PMS_P2;Temp;Humidity;BMP_temperature;BMP_pressure;BME280_temperature;BME280_humidity;BME280_pressure;Samples;Min_cycle;Max_cycle;Signal;HPM_P1;HPM_P2
2021/08/14 00:04:49;;;;;;;13.50;5.60;;;;;;;;;;10476123;28;20287;-70
2021/08/14 00:09:52;;;;;;;11.07;5.93;;;;;;;;;;10473010;28;20231;-69
2021/08/14 00:14:54;;;;;;;11.88;5.93;;;;;;;;;;10472149;28;20201;-70
2021/08/14 00:19:58;;;;;;;13.40;6.30;;;;;;;;;;10468074;28;21023;-69
2021/08/14 00:25:01;;;;;;;16.75;5.85;;;;;;;;;;10478021;28;20216;-69
2021/08/14 00:30:04;;;;;;;14.02;7.57;;;;;;;;;;10478315;28;20219;-69
2021/08/14 00:35:08;;;;;;;12.30;6.13;;;;;;;;;;10473785;28;20798;-70
2021/08/14 00:40:11;;;;;;;11.75;5.97;;;;;;;;;;10475314;28;20904;-69
2021/08/14 00:45:14;;;;;;;12.75;5.78;;;;;;;;;;10479954;28;20216;-70
2021/08/14 00:50:18;;;;;;;10.80;6.00;;;;;;;;;;10489193;28;20294;-70
2021/08/14 00:55:20;;;;;;;12.55;5.80;;;;;;;;;;10477766;28;20222;-70
2021/08/14 01:00:23;;;;;;;11.73;5.70;;;;;;;;;;10479801;28;20336;-70
2021/08/14 01:05:27;;;;;;;11.80;5.55;;;;;;;;;;10480513;28;20208;-71
2021/08/14 01:10:29;;;;;;;11.73;5.85;;;;;;;;;;10480765;28;20221;-70
2021/08/14 01:15:32;;;;;;;10.70;5.68;;;;;;;;;;10491755;28;20246;-71
2021/08/14 01:20:36;;;;;;;11.73;6.18;;;;;;;;;;10488290;28;20339;-72
2021/08/14 01:25:39;;;;;;;10.57;6.43;;;;;;;;;;10489340;28;20201;-70
2021/08/14 01:30:43;;;;;;;14.18;6.60;;;;;;;;;;10484342;28;20573;-71
2021/08/14 01:35:47;;;;;;;12.65;6.25;;;;;;;;;;10478047;28;20192;-69
2021/08/14 01:40:49;;;;;;;10.70;6.22;;;;;;;;;;10485417;28;20618;-69
2021/08/14 01:45:53;;;;;;;10.80;6.40;;;;;;;;;;10481078;28;20243;-71
2021/08/14 01:50:56;;;;;;;12.55;6.00;;;;;;;;;;10481901;28;23305;-70
2021/08/14 01:55:59;;;;;;;15.20;6.82;;;;;;;;;;10475029;28;20764;-70
2021/08/14 02:01:02;;;;;;;10.68;5.88;;;;;;;;;;10479322;28;20579;-69
2021/08/14 02:06:06;;;;;;;11.65;6.50;;;;;;;;;;10479652;28;20299;-70
2021/08/14 02:11:13;;;;;;;12.52;6.47;;;;;;;;;;10478520;28;20243;-69
2021/08/14 02:16:17;;;;;;;11.52;6.60;;;;;;;;;;10480794;28;20281;-70
2021/08/14 02:21:19;;;;;;;11.20;6.30;;;;;;;;;;10475347;28;20312;-70
2021/08/14 02:26:22;;;;;;;13.00;6.55;;;;;;;;;;10477626;28;20275;-69
2021/08/14 02:31:26;;;;;;;13.15;6.80;;;;;;;;;;10479718;28;20645;-70
2021/08/14 02:36:29;;;;;;;13.85;7.40;;;;;;;;;;10475912;28;20188;-68
2021/08/14 02:41:32;;;;;;;12.82;6.63;;;;;;;;;;10497385;28;20278;-70
2021/08/14 02:46:36;;;;;;;13.13;6.57;;;;;;;;;;10474970;28;20288;-70
2021/08/14 02:51:38;;;;;;;10.97;6.70;;;;;;;;;;10495322;28;20220;-69
2021/08/14 02:56:41;;;;;;;13.77;6.50;;;;;;;;;;10482398;28;20599;-70
2021/08/14 03:01:45;;;;;;;11.30;6.90;;;;;;;;;;10477041;28;20595;-70
2021/08/14 03:06:47;;;;;;;11.93;6.90;;;;;;;;;;10481364;28;20208;-70
2021/08/14 03:11:50;;;;;;;13.05;6.75;;;;;;;;;;10471212;28;20213;-69
2021/08/14 03:16:54;;;;;;;12.10;6.35;;;;;;;;;;10464000;28;20205;-70
2021/08/14 03:21:56;;;;;;;12.57;7.20;;;;;;;;;;10475625;28;20217;-70
2021/08/14 03:26:59;;;;;;;10.70;6.67;;;;;;;;;;10475503;28;20269;-70
2021/08/14 03:32:03;;;;;;;13.17;6.80;;;;;;;;;;10480799;28;20216;-69
2021/08/14 03:37:06;;;;;;;11.47;6.90;;;;;;;;;;10476913;28;20226;-70
2021/08/14 03:42:08;;;;;;;11.73;6.60;;;;;;;;;;10477581;28;20243;-70
2021/08/14 03:47:12;;;;;;;11.63;6.53;;;;;;;;;;10473398;28;20672;-70
2021/08/14 03:52:15;;;;;;;11.73;7.10;;;;;;;;;;10471218;28;20223;-70
2021/08/14 03:57:17;;;;;;;11.80;6.73;;;;;;;;;;10473458;28;20263;-71
2021/08/14 04:02:21;;;;;;;12.73;7.03;;;;;;;;;;10474414;28;20250;-70
2021/08/14 04:07:24;;;;;;;13.13;7.20;;;;;;;;;;10476957;28;20204;-70
2021/08/14 04:12:27;;;;;;;12.13;7.33;;;;;;;;;;10486287;28;20270;-70
2021/08/14 04:17:30;;;;;;;12.60;6.63;;;;;;;;;;10486519;28;20310;-70
2021/08/14 04:22:33;;;;;;;13.47;7.10;;;;;;;;;;10480888;28;20227;-70
2021/08/14 04:27:36;;;;;;;14.10;7.33;;;;;;;;;;10483069;28;20629;-69
2021/08/14 04:32:39;;;;;;;11.57;6.85;;;;;;;;;;10479090;28;20209;-71
2021/08/14 04:37:42;;;;;;;11.93;7.05;;;;;;;;;;10484946;28;20192;-70
2021/08/14 04:42:45;;;;;;;13.55;6.97;;;;;;;;;;10485114;28;20216;-70
2021/08/14 04:47:50;;;;;;;12.85;6.95;;;;;;;;;;10491947;28;20197;-70
2021/08/14 04:52:53;;;;;;;12.63;6.82;;;;;;;;;;10483192;28;20318;-69
2021/08/14 04:57:56;;;;;;;11.82;6.80;;;;;;;;;;10480565;28;20262;-70
2021/08/14 05:03:00;;;;;;;12.50;6.83;;;;;;;;;;10481002;28;20287;-67
2021/08/14 05:08:03;;;;;;;12.32;6.55;;;;;;;;;;10477011;28;20231;-68
2021/08/14 05:13:05;;;;;;;12.50;6.93;;;;;;;;;;10488693;28;20212;-70
2021/08/14 05:18:09;;;;;;;11.10;6.65;;;;;;;;;;10493265;28;20196;-70
2021/08/14 05:23:12;;;;;;;14.48;6.65;;;;;;;;;;10488149;28;20209;-71
2021/08/14 05:28:15;;;;;;;12.40;6.80;;;;;;;;;;10486109;28;20208;-72
2021/08/14 05:33:19;;;;;;;11.90;7.00;;;;;;;;;;10489696;28;20212;-72
2021/08/14 05:38:21;;;;;;;12.98;6.60;;;;;;;;;;10479536;28;20196;-71
2021/08/14 05:43:24;;;;;;;11.90;6.43;;;;;;;;;;10482146;28;20212;-70
2021/08/14 05:48:28;;;;;;;11.32;6.50;;;;;;;;;;10487719;28;20220;-69
2021/08/14 05:53:30;;;;;;;12.30;6.45;;;;;;;;;;10487172;28;20203;-71
2021/08/14 05:58:33;;;;;;;13.23;6.05;;;;;;;;;;10476655;28;20192;-69
2021/08/14 06:03:37;;;;;;;10.48;6.22;;;;;;;;;;10478049;28;20196;-71
2021/08/14 06:08:40;;;;;;;10.88;6.22;;;;;;;;;;10476718;28;20727;-71
2021/08/14 06:13:42;;;;;;;10.10;6.20;;;;;;;;;;10470360;28;20726;-71
2021/08/14 06:18:47;;;;;;;11.18;6.20;;;;;;;;;;10473364;28;20278;-71
2021/08/14 06:23:49;;;;;;;11.15;6.45;;;;;;;;;;10474749;28;20228;-71
2021/08/14 06:28:52;;;;;;;12.77;6.40;;;;;;;;;;10477331;28;20308;-72
2021/08/14 06:33:55;;;;;;;11.15;5.95;;;;;;;;;;10470987;28;20540;-72
2021/08/14 06:38:58;;;;;;;10.88;6.03;;;;;;;;;;10480730;28;20259;-72
2021/08/14 06:44:00;;;;;;;11.18;6.22;;;;;;;;;;10484265;28;20193;-72
2021/08/14 06:49:04;;;;;;;11.15;6.68;;;;;;;;;;10477237;28;20969;-71
2021/08/14 06:54:08;;;;;;;11.93;6.38;;;;;;;;;;10472850;28;20196;-71
2021/08/14 06:59:11;;;;;;;10.45;6.10;;;;;;;;;;10486501;28;20287;-71
2021/08/14 07:04:15;;;;;;;10.98;6.30;;;;;;;;;;10470130;28;20254;-73
2021/08/14 07:09:18;;;;;;;10.90;6.18;;;;;;;;;;10470676;28;20291;-73
2021/08/14 07:14:20;;;;;;;12.00;6.30;;;;;;;;;;10463756;28;20216;-72
2021/08/14 07:19:33;;;;;;;12.27;8.63;;;;;;;;;;10466103;28;20260;-72
2021/08/14 07:24:38;;;;;;;10.15;6.00;;;;;;;;;;10482168;28;20200;-73
2021/08/14 07:29:41;;;;;;;10.55;6.63;;;;;;;;;;10473318;28;20224;-72
2021/08/14 07:34:45;;;;;;;11.32;6.28;;;;;;;;;;10471737;28;20573;-73
2021/08/14 07:39:47;;;;;;;10.65;6.38;;;;;;;;;;10460872;28;20212;-73
2021/08/14 07:44:50;;;;;;;9.63;6.43;;;;;;;;;;10475738;28;20227;-74
2021/08/14 07:49:54;;;;;;;10.52;6.65;;;;;;;;;;10471520;28;20217;-73
2021/08/14 07:54:57;;;;;;;9.65;6.28;;;;;;;;;;10470531;28;20204;-74
2021/08/14 08:00:00;;;;;;;10.18;6.70;;;;;;;;;;10475421;28;20243;-75
2021/08/14 08:05:05;;;;;;;10.75;6.45;;;;;;;;;;10472651;28;20199;-74
2021/08/14 08:10:08;;;;;;;9.30;6.60;;;;;;;;;;10474552;28;20223;-75
2021/08/14 08:15:12;;;;;;;8.55;6.05;;;;;;;;;;10473789;28;20281;-74
2021/08/14 08:20:16;;;;;;;9.63;6.10;;;;;;;;;;10469147;28;20250;-74
2021/08/14 08:25:19;;;;;;;8.68;6.03;;;;;;;;;;10477804;28;20242;-73
2021/08/14 08:30:22;;;;;;;8.18;5.80;;;;;;;;;;10472804;28;20227;-74
2021/08/14 08:35:26;;;;;;;9.50;6.00;;;;;;;;;;10469271;28;20544;-73
2021/08/14 08:40:32;;;;;;;10.00;5.93;;;;;;;;;;10471740;28;20208;-73
2021/08/14 08:45:35;;;;;;;9.68;5.53;;;;;;;;;;10483928;28;20234;-72
2021/08/14 08:50:39;;;;;;;9.23;6.50;;;;;;;;;;10470776;28;20718;-73
2021/08/14 08:55:42;;;;;;;9.63;6.15;;;;;;;;;;10464825;28;20672;-73
2021/08/14 09:00:44;;;;;;;8.40;6.07;;;;;;;;;;10480837;28;20211;-74
2021/08/14 09:05:50;;;;;;;8.07;6.20;;;;;;;;;;10473389;28;20187;-73
2021/08/14 09:11:06;;;;;;;7.40;5.18;;;;;;;;;;10480630;28;20212;-73
2021/08/14 09:16:18;;;;;;;8.10;5.28;;;;;;;;;;10476134;28;20223;-73
2021/08/14 09:21:33;;;;;;;9.07;6.60;;;;;;;;;;10471457;28;20211;-73
2021/08/14 09:26:53;;;;;;;7.20;5.72;;;;;;;;;;10471982;28;20200;-74
2021/08/14 09:31:56;;;;;;;7.63;5.63;;;;;;;;;;10476083;28;20315;-73
2021/08/14 09:37:01;;;;;;;7.72;5.15;;;;;;;;;;10477286;28;20553;-73
2021/08/14 09:42:04;;;;;;;8.82;6.15;;;;;;;;;;10473048;28;20215;-73
2021/08/14 09:47:11;;;;;;;19.20;6.80;;;;;;;;;;10480896;28;20582;-73
2021/08/14 09:52:19;;;;;;;9.13;6.13;;;;;;;;;;10479906;28;20258;-74
2021/08/14 09:57:23;;;;;;;9.15;6.57;;;;;;;;;;10469992;28;20216;-74
2021/08/14 10:02:26;;;;;;;10.60;6.53;;;;;;;;;;10481550;28;20330;-74
2021/08/14 10:07:30;;;;;;;8.80;6.45;;;;;;;;;;10480150;28;20605;-74
2021/08/14 10:12:34;;;;;;;9.10;6.60;;;;;;;;;;10486987;28;20293;-74
2021/08/14 10:17:36;;;;;;;9.45;6.57;;;;;;;;;;10473966;28;20216;-74
2021/08/14 10:22:41;;;;;;;8.85;7.30;;;;;;;;;;10480855;28;20248;-73
2021/08/14 10:27:56;;;;;;;9.77;7.10;;;;;;;;;;10478287;28;20698;-74
2021/08/14 10:32:59;;;;;;;10.07;7.05;;;;;;;;;;10480025;28;20671;-74
2021/08/14 10:38:03;;;;;;;10.90;6.72;;;;;;;;;;10481741;28;20700;-74
2021/08/14 10:43:06;;;;;;;9.35;6.55;;;;;;;;;;10465888;28;20207;-74
2021/08/14 10:48:08;;;;;;;8.77;6.80;;;;;;;;;;10474073;28;20287;-74
2021/08/14 10:53:17;;;;;;;10.98;6.65;;;;;;;;;;10463500;28;20224;-74
2021/08/14 10:58:22;;;;;;;10.95;7.35;;;;;;;;;;10473799;28;20286;-74
2021/08/14 11:03:32;;;;;;;8.38;6.80;;;;;;;;;;10470028;28;20235;-74
2021/08/14 11:08:36;;;;;;;8.05;6.43;;;;;;;;;;10478133;28;20184;-74
2021/08/14 11:13:42;;;;;;;8.93;6.88;;;;;;;;;;10491949;28;20302;-74
2021/08/14 11:18:52;;;;;;;9.75;6.93;;;;;;;;;;10474337;28;20366;-74
2021/08/14 11:23:59;;;;;;;9.93;6.90;;;;;;;;;;10464719;28;20246;-74
2021/08/14 11:29:02;;;;;;;8.80;6.90;;;;;;;;;;10493268;28;20208;-74
2021/08/14 11:34:12;;;;;;;9.23;6.78;;;;;;;;;;10488448;28;20199;-74
2021/08/14 11:39:16;;;;;;;12.98;10.82;;;;;;;;;;10474355;28;20262;-74
2021/08/14 11:44:20;;;;;;;8.45;6.32;;;;;;;;;;10475197;28;20221;-74
2021/08/14 11:49:23;;;;;;;9.52;6.63;;;;;;;;;;10470773;28;20227;-74
2021/08/14 11:54:30;;;;;;;9.40;6.38;;;;;;;;;;10473594;28;20594;-74
2021/08/14 11:59:33;;;;;;;8.52;6.55;;;;;;;;;;10470519;28;20219;-74
2021/08/14 12:04:37;;;;;;;9.75;6.88;;;;;;;;;;10470081;28;20275;-74
2021/08/14 12:09:40;;;;;;;8.90;6.32;;;;;;;;;;10474320;28;20243;-74
2021/08/14 12:14:43;;;;;;;11.80;6.80;;;;;;;;;;10476988;28;20192;-73
2021/08/14 12:19:48;;;;;;;12.15;7.20;;;;;;;;;;10464506;28;20215;-73
2021/08/14 12:24:52;;;;;;;10.55;6.93;;;;;;;;;;10476103;28;20192;-74
2021/08/14 12:29:55;;;;;;;11.95;8.13;;;;;;;;;;10479320;28;20269;-73
2021/08/14 12:35:13;;;;;;;11.80;6.70;;;;;;;;;;10483199;28;20242;-74
2021/08/14 12:40:18;;;;;;;10.73;6.53;;;;;;;;;;10486740;28;20211;-74
2021/08/14 12:45:22;;;;;;;10.15;6.65;;;;;;;;;;10489977;28;20197;-74
2021/08/14 12:50:26;;;;;;;9.82;6.60;;;;;;;;;;10480110;28;20208;-74
2021/08/14 12:55:30;;;;;;;9.43;6.47;;;;;;;;;;10478661;28;20660;-73
2021/08/14 13:00:33;;;;;;;9.73;6.55;;;;;;;;;;10476309;28;20228;-74
2021/08/14 13:05:36;;;;;;;10.40;6.68;;;;;;;;;;10475882;28;20222;-74
2021/08/14 13:10:41;;;;;;;8.23;6.32;;;;;;;;;;10487889;28;20216;-73
2021/08/14 13:15:43;;;;;;;11.07;6.70;;;;;;;;;;10476941;28;20261;-73
2021/08/14 13:20:48;;;;;;;10.00;6.28;;;;;;;;;;10479174;28;20223;-73
2021/08/14 13:25:52;;;;;;;12.18;6.90;;;;;;;;;;10475758;28;20671;-74
2021/08/14 13:30:55;;;;;;;9.35;6.20;;;;;;;;;;10472933;28;20223;-74
2021/08/14 13:35:57;;;;;;;9.02;6.68;;;;;;;;;;10482419;28;20193;-74
2021/08/14 13:41:01;;;;;;;9.95;6.35;;;;;;;;;;10486604;28;20763;-73
2021/08/14 13:46:04;;;;;;;11.25;6.40;;;;;;;;;;10475549;28;20200;-73
2021/08/14 13:51:06;;;;;;;13.80;7.88;;;;;;;;;;10482296;28;20216;-74
2021/08/14 13:56:10;;;;;;;11.55;6.47;;;;;;;;;;10482842;28;20271;-73
2021/08/14 14:01:13;;;;;;;9.15;5.80;;;;;;;;;;10478203;28;20235;-74
2021/08/14 14:06:16;;;;;;;11.02;6.30;;;;;;;;;;10470752;28;20279;-73
2021/08/14 14:11:20;;;;;;;12.35;6.53;;;;;;;;;;10480706;28;20695;-73
2021/08/14 14:16:22;;;;;;;10.18;6.38;;;;;;;;;;10486482;28;20291;-74
2021/08/14 14:21:25;;;;;;;10.95;6.43;;;;;;;;;;10486216;28;20308;-73
2021/08/14 14:26:29;;;;;;;10.32;5.82;;;;;;;;;;10494975;28;20580;-73
2021/08/14 14:31:31;;;;;;;10.68;6.00;;;;;;;;;;10482890;28;20204;-73
2021/08/14 14:36:34;;;;;;;11.02;5.90;;;;;;;;;;10485424;28;20204;-73
2021/08/14 14:41:38;;;;;;;9.95;5.97;;;;;;;;;;10470377;28;20226;-73
2021/08/14 14:46:41;;;;;;;10.90;6.60;;;;;;;;;;10498394;28;20195;-71
2021/08/14 14:51:44;;;;;;;9.80;5.65;;;;;;;;;;10481418;28;20213;-71
2021/08/14 14:56:48;;;;;;;9.57;6.38;;;;;;;;;;10479842;28;20193;-71
2021/08/14 15:01:51;;;;;;;11.02;6.40;;;;;;;;;;10486985;28;20232;-72
2021/08/14 15:06:54;;;;;;;10.93;5.95;;;;;;;;;;10480267;28;20270;-70
2021/08/14 15:11:58;;;;;;;10.15;6.60;;;;;;;;;;10479833;28;20283;-71
2021/08/14 15:17:01;;;;;;;10.27;5.80;;;;;;;;;;10484454;28;20258;-70
2021/08/14 15:22:06;;;;;;;11.82;6.78;;;;;;;;;;10483310;28;20220;-70
2021/08/14 15:27:10;;;;;;;10.90;6.47;;;;;;;;;;10483635;28;20227;-71
2021/08/14 15:32:12;;;;;;;11.32;5.93;;;;;;;;;;10479481;28;20672;-71
2021/08/14 15:37:15;;;;;;;11.77;6.28;;;;;;;;;;10482932;28;20200;-71
2021/08/14 15:42:19;;;;;;;11.80;6.35;;;;;;;;;;10478964;28;20645;-71
2021/08/14 15:47:21;;;;;;;11.57;6.55;;;;;;;;;;10484051;28;20192;-71
2021/08/14 15:52:24;;;;;;;10.15;5.72;;;;;;;;;;10482868;28;20224;-71
2021/08/14 15:57:28;;;;;;;11.65;7.63;;;;;;;;;;10480860;28;20284;-70
2021/08/14 16:02:31;;;;;;;11.65;6.55;;;;;;;;;;10484831;28;20230;-70
2021/08/14 16:07:33;;;;;;;12.18;6.90;;;;;;;;;;10474221;28;20299;-71
2021/08/14 16:12:37;;;;;;;11.68;6.25;;;;;;;;;;10478678;28;20219;-72
2021/08/14 16:17:40;;;;;;;9.30;5.78;;;;;;;;;;10482744;28;20261;-71
2021/08/14 16:22:42;;;;;;;11.73;7.18;;;;;;;;;;10489862;28;20219;-72
2021/08/14 16:27:46;;;;;;;14.50;7.05;;;;;;;;;;10490003;28;20237;-72
2021/08/14 16:32:49;;;;;;;11.80;6.30;;;;;;;;;;10483022;28;20683;-71
2021/08/14 16:37:52;;;;;;;10.20;6.20;;;;;;;;;;10486859;28;20188;-71
2021/08/14 16:42:55;;;;;;;11.38;5.78;;;;;;;;;;10491027;28;20590;-71
2021/08/14 16:47:58;;;;;;;13.10;6.10;;;;;;;;;;10494947;28;20774;-72
2021/08/14 16:53:01;;;;;;;11.85;6.50;;;;;;;;;;10495051;28;20301;-72
2021/08/14 16:58:05;;;;;;;11.07;6.85;;;;;;;;;;10484944;28;20683;-71
2021/08/14 17:03:08;;;;;;;15.30;7.20;;;;;;;;;;10489655;28;20302;-71
2021/08/14 17:08:11;;;;;;;12.45;6.75;;;;;;;;;;10479158;28;20192;-70
2021/08/14 17:13:15;;;;;;;10.68;6.40;;;;;;;;;;10494415;28;20212;-71
2021/08/14 17:18:18;;;;;;;12.93;6.75;;;;;;;;;;10485904;28;20204;-70
2021/08/14 17:23:20;;;;;;;12.23;6.40;;;;;;;;;;10480664;28;20291;-71
2021/08/14 17:28:24;;;;;;;12.43;6.38;;;;;;;;;;10489204;28;20201;-71
2021/08/14 17:33:27;;;;;;;11.32;6.53;;;;;;;;;;10480219;28;20327;-70
2021/08/14 17:38:29;;;;;;;11.40;6.22;;;;;;;;;;10481344;28;20216;-70
2021/08/14 17:43:33;;;;;;;12.65;6.75;;;;;;;;;;10486555;28;20224;-69
2021/08/14 17:48:47;;;;;;;12.45;6.10;;;;;;;;;;10487106;28;20200;-69
2021/08/14 17:53:50;;;;;;;13.98;6.75;;;;;;;;;;10473392;28;20252;-70
2021/08/14 17:58:54;;;;;;;12.43;6.47;;;;;;;;;;10474673;28;20281;-68
2021/08/14 18:03:56;;;;;;;11.13;6.63;;;;;;;;;;10476804;28;20299;-68
2021/08/14 18:08:59;;;;;;;13.13;7.28;;;;;;;;;;10482963;28;20221;-69
2021/08/14 18:14:03;;;;;;;11.18;6.90;;;;;;;;;;10482112;28;20211;-68
2021/08/14 18:19:06;;;;;;;10.75;6.43;;;;;;;;;;10481577;28;20247;-68
2021/08/14 18:24:09;;;;;;;12.55;6.50;;;;;;;;;;10486933;28;20200;-68
2021/08/14 18:29:13;;;;;;;14.43;6.60;;;;;;;;;;10487568;28;20738;-68
2021/08/14 18:34:15;;;;;;;16.48;7.30;;;;;;;;;;10479146;28;20224;-70
2021/08/14 18:39:18;;;;;;;12.00;6.72;;;;;;;;;;10480646;28;20200;-70
2021/08/14 18:44:22;;;;;;;12.73;6.82;;;;;;;;;;10484745;28;20307;-70
2021/08/14 18:49:24;;;;;;;13.60;7.00;;;;;;;;;;10478991;28;20219;-70
2021/08/14 18:54:27;;;;;;;12.05;6.60;;;;;;;;;;10492091;28;20300;-70
2021/08/14 18:59:31;;;;;;;11.65;6.93;;;;;;;;;;10483935;28;20600;-70
2021/08/14 19:04:35;;;;;;;16.95;12.30;;;;;;;;;;10486757;28;20223;-70
2021/08/14 19:09:38;;;;;;;13.02;7.95;;;;;;;;;;10484825;28;20212;-70
2021/08/14 19:14:43;;;;;;;12.93;8.73;;;;;;;;;;10483066;28;20253;-70
2021/08/14 19:19:47;;;;;;;15.38;7.75;;;;;;;;;;10483447;28;20692;-70
2021/08/14 19:24:50;;;;;;;15.52;8.68;;;;;;;;;;10482274;28;20280;-70
2021/08/14 19:29:54;;;;;;;14.80;8.60;;;;;;;;;;10483361;28;20274;-70
2021/08/14 19:34:57;;;;;;;12.27;7.50;;;;;;;;;;10478503;28;20272;-69
2021/08/14 19:40:01;;;;;;;13.73;7.68;;;;;;;;;;10480077;28;20323;-70
2021/08/14 19:45:06;;;;;;;16.90;8.13;;;;;;;;;;10484646;28;20192;-68
2021/08/14 19:50:09;;;;;;;14.80;8.13;;;;;;;;;;10481548;28;20216;-69
2021/08/14 19:55:11;;;;;;;13.93;7.95;;;;;;;;;;10484951;28;20664;-69
2021/08/14 20:00:16;;;;;;;15.57;8.43;;;;;;;;;;10482744;28;20274;-69
2021/08/14 20:05:18;;;;;;;16.38;10.10;;;;;;;;;;10483993;28;20223;-67
2021/08/14 20:10:21;;;;;;;17.42;9.50;;;;;;;;;;10483665;28;20651;-69
2021/08/14 20:15:25;;;;;;;12.88;8.35;;;;;;;;;;10482663;28;20234;-69
2021/08/14 20:20:28;;;;;;;15.82;8.68;;;;;;;;;;10484877;28;20710;-69
2021/08/14 20:25:30;;;;;;;18.73;11.98;;;;;;;;;;10484759;28;20224;-70
2021/08/14 20:30:35;;;;;;;18.88;13.20;;;;;;;;;;10484249;28;20216;-69
2021/08/14 20:35:37;;;;;;;17.38;12.65;;;;;;;;;;10479031;28;20199;-71
2021/08/14 20:40:41;;;;;;;16.17;10.38;;;;;;;;;;10479604;28;20212;-70
2021/08/14 20:45:45;;;;;;;26.15;18.83;;;;;;;;;;10484376;28;20193;-72
2021/08/14 20:50:48;;;;;;;17.25;10.57;;;;;;;;;;10483730;28;20232;-70
2021/08/14 20:55:51;;;;;;;19.13;11.30;;;;;;;;;;10488719;28;20193;-70
2021/08/14 21:00:56;;;;;;;32.08;23.48;;;;;;;;;;10491847;28;20211;-71
2021/08/14 21:05:59;;;;;;;15.63;10.38;;;;;;;;;;10488545;28;20544;-70
2021/08/14 21:11:02;;;;;;;23.52;17.10;;;;;;;;;;10488922;28;20615;-70
2021/08/14 21:16:27;;;;;;;13.40;9.68;;;;;;;;;;10479207;28;20651;-69
2021/08/14 21:21:30;;;;;;;14.93;9.43;;;;;;;;;;10485470;28;20208;-69
2021/08/14 21:26:33;;;;;;;14.02;9.63;;;;;;;;;;10485880;28;20307;-69
2021/08/14 21:31:37;;;;;;;15.93;10.57;;;;;;;;;;10485154;28;20575;-69
2021/08/14 21:36:39;;;;;;;16.42;9.50;;;;;;;;;;10481320;28;20314;-69
2021/08/14 21:41:42;;;;;;;16.35;9.68;;;;;;;;;;10478949;28;20277;-69
2021/08/14 21:46:46;;;;;;;15.30;9.60;;;;;;;;;;10485521;28;20212;-68
2021/08/14 21:51:51;;;;;;;16.60;9.82;;;;;;;;;;10481785;28;20637;-69
2021/08/14 21:56:54;;;;;;;27.05;17.58;;;;;;;;;;10482852;28;20224;-67
2021/08/14 22:01:58;;;;;;;15.80;10.30;;;;;;;;;;10487948;28;20265;-68
2021/08/14 22:07:01;;;;;;;14.32;9.52;;;;;;;;;;10475643;28;20196;-69
2021/08/14 22:12:05;;;;;;;14.70;10.23;;;;;;;;;;10494543;28;20247;-68
2021/08/14 22:17:09;;;;;;;15.50;10.45;;;;;;;;;;10477410;28;20228;-69
2021/08/14 22:22:12;;;;;;;15.93;10.23;;;;;;;;;;10485626;28;20212;-69
2021/08/14 22:27:14;;;;;;;19.90;11.27;;;;;;;;;;10483920;28;20879;-69
2021/08/14 22:32:18;;;;;;;15.68;9.93;;;;;;;;;;10480012;28;20284;-69
2021/08/14 22:37:24;;;;;;;15.07;10.35;;;;;;;;;;10478301;28;21350;-69
2021/08/14 22:42:28;;;;;;;15.93;9.85;;;;;;;;;;10480141;28;20229;-68
2021/08/14 22:47:30;;;;;;;14.13;10.23;;;;;;;;;;10471159;28;20199;-67
2021/08/14 22:52:34;;;;;;;15.27;10.35;;;;;;;;;;10475798;28;20217;-68
2021/08/14 22:57:39;;;;;;;16.38;10.77;;;;;;;;;;10471472;28;20665;-69
2021/08/14 23:02:41;;;;;;;16.20;10.18;;;;;;;;;;10478323;28;20277;-68
2021/08/14 23:07:44;;;;;;;18.23;10.30;;;;;;;;;;10467703;28;20189;-69
2021/08/14 23:12:48;;;;;;;15.50;9.88;;;;;;;;;;10463299;28;20288;-68
2021/08/14 23:17:51;;;;;;;14.75;9.75;;;;;;;;;;10471047;28;20205;-68
2021/08/14 23:22:54;;;;;;;14.23;10.07;;;;;;;;;;10470546;28;20266;-67
2021/08/14 23:27:59;;;;;;;16.98;10.10;;;;;;;;;;10486462;28;20355;-66
2021/08/14 23:33:03;;;;;;;16.25;10.73;;;;;;;;;;10484297;28;20213;-68
2021/08/14 23:38:06;;;;;;;14.35;9.80;;;;;;;;;;10482418;28;20279;-68
2021/08/14 23:43:09;;;;;;;14.35;10.02;;;;;;;;;;10466111;28;20243;-69
2021/08/14 23:48:13;;;;;;;16.65;10.13;;;;;;;;;;10469348;28;20192;-68
2021/08/14 23:53:15;;;;;;;14.40;10.27;;;;;;;;;;10468399;28;20262;-68
2021/08/14 23:58:19;;;;;;;15.25;9.68;;;;;;;;;;10475342;28;20197;-69
